sensor_id;sensor_type;location;lat;lon;timestamp;temperature;humidity
18041;DHT22;9145;48.588;9.250;2023-02-11T00:00:47;0.60;99.90
18041;DHT22;9145;48.588;9.250;2023-02-11T00:03:14;0.50;99.90
18041;DHT22;9145;48.588;9.250;2023-02-11T00:05:41;0.60;99.90
18041;DHT22;9145;48.588;9.250;2023-02-11T00:08:08;0.60;99.90
18041;DHT22;9145;48.588;9.250;2023-02-11T00:10:35;0.70;99.90
18041;DHT22;9145;48.588;9.250;2023-02-11T00:13:01;0.80;99.90
18041;DHT22;9145;48.588;9.250;2023-02-11T00:15:28;0.80;99.90
18041;DHT22;9145;48.588;9.250;2023-02-11T00:17:56;0.90;99.90
18041;DHT22;9145;48.588;9.250;2023-02-11T00:20:23;1.00;99.90
18041;DHT22;9145;48.588;9.250;2023-02-11T00:22:50;1.10;99.90
18041;DHT22;9145;48.588;9.250;2023-02-11T00:25:17;1.10;99.90
18041;DHT22;9145;48.588;9.250;2023-02-11T00:27:43;1.00;99.90
18041;DHT22;9145;48.588;9.250;2023-02-11T00:30:11;1.00;99.90
18041;DHT22;9145;48.588;9.250;2023-02-11T00:32:37;1.00;99.90
18041;DHT22;9145;48.588;9.250;2023-02-11T00:35:08;0.90;99.90
18041;DHT22;9145;48.588;9.250;2023-02-11T00:37:35;0.90;99.90
18041;DHT22;9145;48.588;9.250;2023-02-11T00:40:02;0.80;99.90
18041;DHT22;9145;48.588;9.250;2023-02-11T00:42:29;0.80;99.90
18041;DHT22;9145;48.588;9.250;2023-02-11T00:44:56;0.90;99.90
18041;DHT22;9145;48.588;9.250;2023-02-11T00:47:22;0.80;99.90
18041;DHT22;9145;48.588;9.250;2023-02-11T00:49:49;0.60;99.90
18041;DHT22;9145;48.588;9.250;2023-02-11T00:52:17;0.60;99.90
18041;DHT22;9145;48.588;9.250;2023-02-11T00:54:44;0.60;99.90
18041;DHT22;9145;48.588;9.250;2023-02-11T00:57:11;0.50;99.90
18041;DHT22;9145;48.588;9.250;2023-02-11T00:59:38;0.30;99.90
18041;DHT22;9145;48.588;9.250;2023-02-11T01:02:05;0.20;99.90
18041;DHT22;9145;48.588;9.250;2023-02-11T01:04:31;0.10;99.90
18041;DHT22;9145;48.588;9.250;2023-02-11T01:06:58;0.20;99.90
18041;DHT22;9145;48.588;9.250;2023-02-11T01:09:26;0.20;99.90
18041;DHT22;9145;48.588;9.250;2023-02-11T01:11:53;0.10;99.90
18041;DHT22;9145;48.588;9.250;2023-02-11T01:14:20;0.10;99.90
18041;DHT22;9145;48.588;9.250;2023-02-11T01:16:47;0.10;99.90
18041;DHT22;9145;48.588;9.250;2023-02-11T01:19:13;0.10;99.90
18041;DHT22;9145;48.588;9.250;2023-02-11T01:21:40;-0.10;99.90
18041;DHT22;9145;48.588;9.250;2023-02-11T01:24:07;-0.30;99.90
18041;DHT22;9145;48.588;9.250;2023-02-11T01:26:35;-0.40;99.90
18041;DHT22;9145;48.588;9.250;2023-02-11T01:29:02;-0.60;99.90
18041;DHT22;9145;48.588;9.250;2023-02-11T01:31:30;-0.70;99.90
18041;DHT22;9145;48.588;9.250;2023-02-11T01:33:57;-0.70;99.90
18041;DHT22;9145;48.588;9.250;2023-02-11T01:36:23;-0.70;99.90
18041;DHT22;9145;48.588;9.250;2023-02-11T01:38:50;-0.50;99.90
18041;DHT22;9145;48.588;9.250;2023-02-11T01:41:17;-0.40;99.90
18041;DHT22;9145;48.588;9.250;2023-02-11T01:43:47;-0.40;99.90
18041;DHT22;9145;48.588;9.250;2023-02-11T01:46:22;-0.40;99.90
18041;DHT22;9145;48.588;9.250;2023-02-11T01:48:52;-0.30;99.90
18041;DHT22;9145;48.588;9.250;2023-02-11T01:51:22;-0.30;99.90
18041;DHT22;9145;48.588;9.250;2023-02-11T01:53:52;-0.30;99.90
18041;DHT22;9145;48.588;9.250;2023-02-11T01:56:41;-0.30;99.90
18041;DHT22;9145;48.588;9.250;2023-02-11T01:59:30;-0.30;99.90
18041;DHT22;9145;48.588;9.250;2023-02-11T02:02:02;-0.40;99.90
18041;DHT22;9145;48.588;9.250;2023-02-11T02:04:37;-0.40;99.90
18041;DHT22;9145;48.588;9.250;2023-02-11T02:07:08;-0.40;99.90
18041;DHT22;9145;48.588;9.250;2023-02-11T02:09:40;-0.40;99.90
18041;DHT22;9145;48.588;9.250;2023-02-11T02:12:08;-0.40;99.90
18041;DHT22;9145;48.588;9.250;2023-02-11T02:14:39;-0.30;99.90
18041;DHT22;9145;48.588;9.250;2023-02-11T02:17:06;-0.30;99.90
18041;DHT22;9145;48.588;9.250;2023-02-11T02:23:16;-0.40;99.90
18041;DHT22;9145;48.588;9.250;2023-02-11T02:26:06;-0.40;99.90
18041;DHT22;9145;48.588;9.250;2023-02-11T02:29:14;-0.40;99.90
18041;DHT22;9145;48.588;9.250;2023-02-11T02:32:15;-0.40;99.90
18041;DHT22;9145;48.588;9.250;2023-02-11T02:34:47;-0.30;99.90
18041;DHT22;9145;48.588;9.250;2023-02-11T02:37:18;-0.30;99.90
18041;DHT22;9145;48.588;9.250;2023-02-11T02:39:47;-0.20;99.90
18041;DHT22;9145;48.588;9.250;2023-02-11T02:42:16;-0.20;99.90
18041;DHT22;9145;48.588;9.250;2023-02-11T02:44:47;-0.20;99.90
18041;DHT22;9145;48.588;9.250;2023-02-11T02:47:15;-0.10;99.90
18041;DHT22;9145;48.588;9.250;2023-02-11T02:49:42;0.00;99.90
18041;DHT22;9145;48.588;9.250;2023-02-11T02:52:24;0.00;99.90
18041;DHT22;9145;48.588;9.250;2023-02-11T02:55:31;-0.10;99.90
18041;DHT22;9145;48.588;9.250;2023-02-11T02:58:26;-0.20;99.90
18041;DHT22;9145;48.588;9.250;2023-02-11T03:01:01;-0.10;99.90
18041;DHT22;9145;48.588;9.250;2023-02-11T03:03:36;-0.10;99.90
18041;DHT22;9145;48.588;9.250;2023-02-11T03:06:09;-0.10;99.90
18041;DHT22;9145;48.588;9.250;2023-02-11T03:08:39;-0.10;99.90
18041;DHT22;9145;48.588;9.250;2023-02-11T03:11:08;-0.10;99.90
18041;DHT22;9145;48.588;9.250;2023-02-11T03:13:38;-0.10;99.90
18041;DHT22;9145;48.588;9.250;2023-02-11T03:16:08;-0.10;99.90
18041;DHT22;9145;48.588;9.250;2023-02-11T03:18:38;-0.10;99.90
18041;DHT22;9145;48.588;9.250;2023-02-11T03:21:07;-0.20;99.90
18041;DHT22;9145;48.588;9.250;2023-02-11T03:23:38;-0.20;99.90
18041;DHT22;9145;48.588;9.250;2023-02-11T03:26:10;-0.30;99.90
18041;DHT22;9145;48.588;9.250;2023-02-11T03:28:43;-0.30;99.90
18041;DHT22;9145;48.588;9.250;2023-02-11T03:31:16;-0.30;99.90
18041;DHT22;9145;48.588;9.250;2023-02-11T03:33:52;-0.40;99.90
18041;DHT22;9145;48.588;9.250;2023-02-11T03:36:25;-0.40;99.90
18041;DHT22;9145;48.588;9.250;2023-02-11T03:38:56;-0.50;99.90
18041;DHT22;9145;48.588;9.250;2023-02-11T03:41:24;-0.70;99.90
18041;DHT22;9145;48.588;9.250;2023-02-11T03:43:53;-0.80;99.90
18041;DHT22;9145;48.588;9.250;2023-02-11T03:46:25;-0.80;99.90
18041;DHT22;9145;48.588;9.250;2023-02-11T03:48:57;-0.80;99.90
18041;DHT22;9145;48.588;9.250;2023-02-11T03:51:28;-0.80;99.90
18041;DHT22;9145;48.588;9.250;2023-02-11T03:53:59;-0.80;99.90
18041;DHT22;9145;48.588;9.250;2023-02-11T03:56:31;-0.80;99.90
18041;DHT22;9145;48.588;9.250;2023-02-11T03:58:58;-0.70;99.90
18041;DHT22;9145;48.588;9.250;2023-02-11T04:01:25;-0.70;99.90
18041;DHT22;9145;48.588;9.250;2023-02-11T04:03:53;-0.60;99.90
18041;DHT22;9145;48.588;9.250;2023-02-11T04:06:20;-0.60;99.90
18041;DHT22;9145;48.588;9.250;2023-02-11T04:08:47;-0.60;99.90
18041;DHT22;9145;48.588;9.250;2023-02-11T04:11:14;-0.50;99.90
18041;DHT22;9145;48.588;9.250;2023-02-11T04:13:40;-0.50;99.90
18041;DHT22;9145;48.588;9.250;2023-02-11T04:16:07;-0.50;99.90
18041;DHT22;9145;48.588;9.250;2023-02-11T04:18:34;-0.50;99.90
18041;DHT22;9145;48.588;9.250;2023-02-11T04:21:02;-0.50;99.90
18041;DHT22;9145;48.588;9.250;2023-02-11T04:23:29;-0.50;99.90
18041;DHT22;9145;48.588;9.250;2023-02-11T04:25:56;-0.50;99.90
18041;DHT22;9145;48.588;9.250;2023-02-11T04:28:23;-0.50;99.90
18041;DHT22;9145;48.588;9.250;2023-02-11T04:30:51;-0.50;99.90
18041;DHT22;9145;48.588;9.250;2023-02-11T04:33:18;-0.50;99.90
18041;DHT22;9145;48.588;9.250;2023-02-11T04:35:45;-0.40;99.90
18041;DHT22;9145;48.588;9.250;2023-02-11T04:38:13;-0.50;99.90
18041;DHT22;9145;48.588;9.250;2023-02-11T04:40:40;-0.40;99.90
18041;DHT22;9145;48.588;9.250;2023-02-11T04:43:06;-0.40;99.90
18041;DHT22;9145;48.588;9.250;2023-02-11T04:45:34;-0.40;99.90
18041;DHT22;9145;48.588;9.250;2023-02-11T04:48:01;-0.40;99.90
18041;DHT22;9145;48.588;9.250;2023-02-11T04:50:28;-0.40;99.90
18041;DHT22;9145;48.588;9.250;2023-02-11T04:52:55;-0.50;99.90
18041;DHT22;9145;48.588;9.250;2023-02-11T04:55:23;-0.50;99.90
18041;DHT22;9145;48.588;9.250;2023-02-11T04:57:50;-0.50;99.90
18041;DHT22;9145;48.588;9.250;2023-02-11T05:00:17;-0.50;99.90
18041;DHT22;9145;48.588;9.250;2023-02-11T05:02:44;-0.40;99.90
18041;DHT22;9145;48.588;9.250;2023-02-11T05:05:11;-0.30;99.90
18041;DHT22;9145;48.588;9.250;2023-02-11T05:07:37;-0.30;99.90
18041;DHT22;9145;48.588;9.250;2023-02-11T05:10:05;-0.30;99.90
18041;DHT22;9145;48.588;9.250;2023-02-11T05:12:33;-0.20;99.90
18041;DHT22;9145;48.588;9.250;2023-02-11T05:14:59;-0.20;99.90
18041;DHT22;9145;48.588;9.250;2023-02-11T05:17:26;-0.10;99.90
18041;DHT22;9145;48.588;9.250;2023-02-11T05:19:53;-0.10;99.90
18041;DHT22;9145;48.588;9.250;2023-02-11T05:22:20;-0.10;99.90
18041;DHT22;9145;48.588;9.250;2023-02-11T05:24:47;-0.10;99.90
18041;DHT22;9145;48.588;9.250;2023-02-11T05:27:14;-0.10;99.90
18041;DHT22;9145;48.588;9.250;2023-02-11T05:29:42;-0.10;99.90
18041;DHT22;9145;48.588;9.250;2023-02-11T05:32:09;-0.10;99.90
18041;DHT22;9145;48.588;9.250;2023-02-11T05:34:36;-0.10;99.90
18041;DHT22;9145;48.588;9.250;2023-02-11T05:37:03;-0.20;99.90
18041;DHT22;9145;48.588;9.250;2023-02-11T05:39:30;-0.20;99.90
18041;DHT22;9145;48.588;9.250;2023-02-11T05:41:57;-0.20;99.90
18041;DHT22;9145;48.588;9.250;2023-02-11T05:44:23;-0.20;99.90
18041;DHT22;9145;48.588;9.250;2023-02-11T05:46:52;-0.20;99.90
18041;DHT22;9145;48.588;9.250;2023-02-11T05:49:18;-0.20;99.90
18041;DHT22;9145;48.588;9.250;2023-02-11T05:51:45;-0.20;99.90
18041;DHT22;9145;48.588;9.250;2023-02-11T05:54:12;-0.30;99.90
18041;DHT22;9145;48.588;9.250;2023-02-11T05:56:39;-0.20;99.90
18041;DHT22;9145;48.588;9.250;2023-02-11T05:59:06;-0.30;99.90
18041;DHT22;9145;48.588;9.250;2023-02-11T06:01:33;-0.20;99.90
18041;DHT22;9145;48.588;9.250;2023-02-11T06:04:01;-0.20;99.90
18041;DHT22;9145;48.588;9.250;2023-02-11T06:06:27;-0.20;99.90
18041;DHT22;9145;48.588;9.250;2023-02-11T06:08:55;-0.10;99.90
18041;DHT22;9145;48.588;9.250;2023-02-11T06:11:21;-0.20;99.90
18041;DHT22;9145;48.588;9.250;2023-02-11T06:13:49;-0.30;99.90
18041;DHT22;9145;48.588;9.250;2023-02-11T06:16:16;-0.40;99.90
18041;DHT22;9145;48.588;9.250;2023-02-11T06:18:43;-0.50;99.90
18041;DHT22;9145;48.588;9.250;2023-02-11T06:21:12;-0.40;99.90
18041;DHT22;9145;48.588;9.250;2023-02-11T06:23:38;-0.30;99.90
18041;DHT22;9145;48.588;9.250;2023-02-11T06:26:07;-0.30;99.90
18041;DHT22;9145;48.588;9.250;2023-02-11T06:28:34;-0.10;99.90
18041;DHT22;9145;48.588;9.250;2023-02-11T06:31:04;0.00;99.90
18041;DHT22;9145;48.588;9.250;2023-02-11T06:33:32;0.10;99.90
18041;DHT22;9145;48.588;9.250;2023-02-11T06:35:58;0.20;99.90
18041;DHT22;9145;48.588;9.250;2023-02-11T06:38:27;0.20;99.90
18041;DHT22;9145;48.588;9.250;2023-02-11T06:40:53;0.20;99.90
18041;DHT22;9145;48.588;9.250;2023-02-11T06:43:20;0.20;99.90
18041;DHT22;9145;48.588;9.250;2023-02-11T06:45:51;0.20;99.90
18041;DHT22;9145;48.588;9.250;2023-02-11T06:48:18;0.20;99.90
18041;DHT22;9145;48.588;9.250;2023-02-11T06:50:45;0.30;99.90
18041;DHT22;9145;48.588;9.250;2023-02-11T06:53:12;0.30;99.90
18041;DHT22;9145;48.588;9.250;2023-02-11T06:55:40;0.30;99.90
18041;DHT22;9145;48.588;9.250;2023-02-11T06:58:07;0.30;99.90
18041;DHT22;9145;48.588;9.250;2023-02-11T07:00:34;0.40;99.90
18041;DHT22;9145;48.588;9.250;2023-02-11T07:03:01;0.40;99.90
18041;DHT22;9145;48.588;9.250;2023-02-11T07:05:28;0.40;99.90
18041;DHT22;9145;48.588;9.250;2023-02-11T07:07:56;0.50;99.90
18041;DHT22;9145;48.588;9.250;2023-02-11T07:10:22;0.50;99.90
18041;DHT22;9145;48.588;9.250;2023-02-11T07:12:51;0.50;99.90
18041;DHT22;9145;48.588;9.250;2023-02-11T07:15:17;0.50;99.90
18041;DHT22;9145;48.588;9.250;2023-02-11T07:17:44;0.60;99.90
18041;DHT22;9145;48.588;9.250;2023-02-11T07:20:11;0.60;99.90
18041;DHT22;9145;48.588;9.250;2023-02-11T07:22:39;0.60;99.90
18041;DHT22;9145;48.588;9.250;2023-02-11T07:25:06;0.60;99.90
18041;DHT22;9145;48.588;9.250;2023-02-11T07:27:33;0.60;99.90
18041;DHT22;9145;48.588;9.250;2023-02-11T07:30:01;0.50;99.90
18041;DHT22;9145;48.588;9.250;2023-02-11T07:32:28;0.60;99.90
18041;DHT22;9145;48.588;9.250;2023-02-11T07:34:55;0.60;99.90
18041;DHT22;9145;48.588;9.250;2023-02-11T07:37:22;0.60;99.90
18041;DHT22;9145;48.588;9.250;2023-02-11T07:39:49;0.70;99.90
18041;DHT22;9145;48.588;9.250;2023-02-11T07:42:15;0.70;99.90
18041;DHT22;9145;48.588;9.250;2023-02-11T07:44:42;0.80;99.90
18041;DHT22;9145;48.588;9.250;2023-02-11T07:47:10;0.80;99.90
18041;DHT22;9145;48.588;9.250;2023-02-11T07:49:37;0.80;99.90
18041;DHT22;9145;48.588;9.250;2023-02-11T07:52:04;0.80;99.90
18041;DHT22;9145;48.588;9.250;2023-02-11T07:54:31;0.90;99.90
18041;DHT22;9145;48.588;9.250;2023-02-11T07:56:58;0.90;99.90
18041;DHT22;9145;48.588;9.250;2023-02-11T07:59:25;0.90;99.90
18041;DHT22;9145;48.588;9.250;2023-02-11T08:01:52;1.00;99.90
18041;DHT22;9145;48.588;9.250;2023-02-11T08:04:20;1.00;99.90
18041;DHT22;9145;48.588;9.250;2023-02-11T08:06:46;1.00;99.90
18041;DHT22;9145;48.588;9.250;2023-02-11T08:09:15;1.10;99.90
18041;DHT22;9145;48.588;9.250;2023-02-11T08:11:42;1.10;99.90
18041;DHT22;9145;48.588;9.250;2023-02-11T08:14:09;1.20;99.90
18041;DHT22;9145;48.588;9.250;2023-02-11T08:16:36;1.30;99.90
18041;DHT22;9145;48.588;9.250;2023-02-11T08:19:06;1.50;99.90
18041;DHT22;9145;48.588;9.250;2023-02-11T08:21:34;1.60;99.90
18041;DHT22;9145;48.588;9.250;2023-02-11T08:24:01;1.80;99.90
18041;DHT22;9145;48.588;9.250;2023-02-11T08:26:30;1.90;99.90
18041;DHT22;9145;48.588;9.250;2023-02-11T08:29:00;2.10;99.90
18041;DHT22;9145;48.588;9.250;2023-02-11T08:31:29;2.10;99.90
18041;DHT22;9145;48.588;9.250;2023-02-11T08:33:57;2.20;99.90
18041;DHT22;9145;48.588;9.250;2023-02-11T08:36:26;2.30;99.90
18041;DHT22;9145;48.588;9.250;2023-02-11T08:38:55;2.30;99.90
18041;DHT22;9145;48.588;9.250;2023-02-11T08:41:24;2.30;99.90
18041;DHT22;9145;48.588;9.250;2023-02-11T08:43:51;2.40;99.90
18041;DHT22;9145;48.588;9.250;2023-02-11T08:46:19;2.40;99.90
18041;DHT22;9145;48.588;9.250;2023-02-11T08:48:46;2.40;99.90
18041;DHT22;9145;48.588;9.250;2023-02-11T08:51:15;2.40;99.90
18041;DHT22;9145;48.588;9.250;2023-02-11T08:53:43;2.30;99.90
18041;DHT22;9145;48.588;9.250;2023-02-11T08:56:13;2.30;99.90
18041;DHT22;9145;48.588;9.250;2023-02-11T08:58:40;2.30;99.90
18041;DHT22;9145;48.588;9.250;2023-02-11T09:01:11;2.30;99.90
18041;DHT22;9145;48.588;9.250;2023-02-11T09:03:38;2.40;99.90
18041;DHT22;9145;48.588;9.250;2023-02-11T09:06:06;2.40;99.90
18041;DHT22;9145;48.588;9.250;2023-02-11T09:08:34;2.50;99.90
18041;DHT22;9145;48.588;9.250;2023-02-11T09:11:01;2.50;99.90
18041;DHT22;9145;48.588;9.250;2023-02-11T09:13:30;2.50;99.90
18041;DHT22;9145;48.588;9.250;2023-02-11T09:15:57;2.60;99.90
18041;DHT22;9145;48.588;9.250;2023-02-11T09:18:24;2.70;99.90
18041;DHT22;9145;48.588;9.250;2023-02-11T09:20:53;2.80;99.90
18041;DHT22;9145;48.588;9.250;2023-02-11T09:23:20;2.90;99.90
18041;DHT22;9145;48.588;9.250;2023-02-11T09:25:46;3.00;99.90
18041;DHT22;9145;48.588;9.250;2023-02-11T09:28:13;3.10;99.90
18041;DHT22;9145;48.588;9.250;2023-02-11T09:30:41;3.10;99.90
18041;DHT22;9145;48.588;9.250;2023-02-11T09:33:08;3.20;99.90
18041;DHT22;9145;48.588;9.250;2023-02-11T09:35:35;3.20;99.90
18041;DHT22;9145;48.588;9.250;2023-02-11T09:38:02;3.30;99.90
18041;DHT22;9145;48.588;9.250;2023-02-11T09:40:28;3.30;99.90
18041;DHT22;9145;48.588;9.250;2023-02-11T09:43:01;3.40;99.90
18041;DHT22;9145;48.588;9.250;2023-02-11T09:45:29;3.40;99.90
18041;DHT22;9145;48.588;9.250;2023-02-11T09:48:00;3.50;99.90
18041;DHT22;9145;48.588;9.250;2023-02-11T09:50:31;3.60;99.90
18041;DHT22;9145;48.588;9.250;2023-02-11T09:53:01;3.60;99.90
18041;DHT22;9145;48.588;9.250;2023-02-11T09:55:32;3.70;99.90
18041;DHT22;9145;48.588;9.250;2023-02-11T09:58:04;3.80;99.90
18041;DHT22;9145;48.588;9.250;2023-02-11T10:00:36;4.00;99.90
18041;DHT22;9145;48.588;9.250;2023-02-11T10:03:39;4.10;99.90
18041;DHT22;9145;48.588;9.250;2023-02-11T10:06:23;4.20;99.90
18041;DHT22;9145;48.588;9.250;2023-02-11T10:09:00;4.40;99.90
18041;DHT22;9145;48.588;9.250;2023-02-11T10:11:33;4.50;99.90
18041;DHT22;9145;48.588;9.250;2023-02-11T10:14:11;4.50;99.90
18041;DHT22;9145;48.588;9.250;2023-02-11T10:16:56;4.60;99.90
18041;DHT22;9145;48.588;9.250;2023-02-11T10:19:43;4.60;99.90
18041;DHT22;9145;48.588;9.250;2023-02-11T10:22:17;4.70;99.90
18041;DHT22;9145;48.588;9.250;2023-02-11T10:24:50;4.60;99.90
18041;DHT22;9145;48.588;9.250;2023-02-11T10:27:20;4.70;99.90
18041;DHT22;9145;48.588;9.250;2023-02-11T10:29:50;4.80;99.90
18041;DHT22;9145;48.588;9.250;2023-02-11T10:32:28;4.90;99.90
18041;DHT22;9145;48.588;9.250;2023-02-11T10:35:01;5.00;99.90
18041;DHT22;9145;48.588;9.250;2023-02-11T10:37:29;4.90;99.90
18041;DHT22;9145;48.588;9.250;2023-02-11T10:39:56;4.90;99.90
18041;DHT22;9145;48.588;9.250;2023-02-11T10:42:24;5.00;99.90
18041;DHT22;9145;48.588;9.250;2023-02-11T10:44:56;5.10;99.90
18041;DHT22;9145;48.588;9.250;2023-02-11T10:47:27;5.10;99.90
18041;DHT22;9145;48.588;9.250;2023-02-11T10:49:58;5.10;99.90
18041;DHT22;9145;48.588;9.250;2023-02-11T10:52:28;5.10;99.90
18041;DHT22;9145;48.588;9.250;2023-02-11T10:55:05;5.40;99.90
18041;DHT22;9145;48.588;9.250;2023-02-11T10:57:42;5.60;99.90
18041;DHT22;9145;48.588;9.250;2023-02-11T11:00:30;5.80;99.90
18041;DHT22;9145;48.588;9.250;2023-02-11T11:02:59;6.10;99.90
18041;DHT22;9145;48.588;9.250;2023-02-11T11:05:34;6.30;99.90
18041;DHT22;9145;48.588;9.250;2023-02-11T11:08:03;6.50;99.90
18041;DHT22;9145;48.588;9.250;2023-02-11T11:10:36;6.60;99.90
18041;DHT22;9145;48.588;9.250;2023-02-11T11:13:26;6.70;99.90
18041;DHT22;9145;48.588;9.250;2023-02-11T11:16:21;6.80;99.90
18041;DHT22;9145;48.588;9.250;2023-02-11T11:18:50;7.00;99.90
18041;DHT22;9145;48.588;9.250;2023-02-11T11:21:22;7.10;99.90
18041;DHT22;9145;48.588;9.250;2023-02-11T11:23:53;7.30;99.90
18041;DHT22;9145;48.588;9.250;2023-02-11T11:26:21;7.50;99.90
18041;DHT22;9145;48.588;9.250;2023-02-11T11:28:56;7.60;99.90
18041;DHT22;9145;48.588;9.250;2023-02-11T11:31:27;7.70;99.90
18041;DHT22;9145;48.588;9.250;2023-02-11T11:33:57;7.70;99.90
18041;DHT22;9145;48.588;9.250;2023-02-11T11:36:33;7.90;99.90
18041;DHT22;9145;48.588;9.250;2023-02-11T11:39:09;8.00;99.90
18041;DHT22;9145;48.588;9.250;2023-02-11T11:41:49;8.20;99.90
18041;DHT22;9145;48.588;9.250;2023-02-11T11:44:22;8.40;99.90
18041;DHT22;9145;48.588;9.250;2023-02-11T11:47:06;8.40;99.90
18041;DHT22;9145;48.588;9.250;2023-02-11T11:49:36;8.50;99.90
18041;DHT22;9145;48.588;9.250;2023-02-11T11:52:14;8.60;99.90
18041;DHT22;9145;48.588;9.250;2023-02-11T11:54:46;8.60;99.90
18041;DHT22;9145;48.588;9.250;2023-02-11T11:57:18;8.60;99.90
18041;DHT22;9145;48.588;9.250;2023-02-11T11:59:47;8.70;99.90
18041;DHT22;9145;48.588;9.250;2023-02-11T12:05:23;9.00;99.90
18041;DHT22;9145;48.588;9.250;2023-02-11T12:08:01;9.10;99.90
18041;DHT22;9145;48.588;9.250;2023-02-11T12:11:05;9.20;99.90
18041;DHT22;9145;48.588;9.250;2023-02-11T12:13:46;9.20;99.90
18041;DHT22;9145;48.588;9.250;2023-02-11T12:16:22;9.40;99.90
18041;DHT22;9145;48.588;9.250;2023-02-11T12:19:29;9.50;99.90
18041;DHT22;9145;48.588;9.250;2023-02-11T12:22:04;9.60;99.90
18041;DHT22;9145;48.588;9.250;2023-02-11T12:24:53;9.90;99.90
18041;DHT22;9145;48.588;9.250;2023-02-11T12:27:28;10.40;99.90
18041;DHT22;9145;48.588;9.250;2023-02-11T12:30:05;10.60;99.90
18041;DHT22;9145;48.588;9.250;2023-02-11T12:32:42;10.80;99.90
18041;DHT22;9145;48.588;9.250;2023-02-11T12:35:30;10.60;99.90
18041;DHT22;9145;48.588;9.250;2023-02-11T12:38:22;10.70;99.90
18041;DHT22;9145;48.588;9.250;2023-02-11T12:41:00;10.50;99.90
18041;DHT22;9145;48.588;9.250;2023-02-11T12:43:33;10.40;99.90
18041;DHT22;9145;48.588;9.250;2023-02-11T12:49:17;10.60;99.90
18041;DHT22;9145;48.588;9.250;2023-02-11T12:52:00;10.70;99.90
18041;DHT22;9145;48.588;9.250;2023-02-11T12:54:31;10.70;99.90
18041;DHT22;9145;48.588;9.250;2023-02-11T12:57:02;10.60;99.90
18041;DHT22;9145;48.588;9.250;2023-02-11T12:59:39;10.60;99.90
18041;DHT22;9145;48.588;9.250;2023-02-11T13:02:17;10.80;99.90
18041;DHT22;9145;48.588;9.250;2023-02-11T13:04:48;11.00;99.90
18041;DHT22;9145;48.588;9.250;2023-02-11T13:07:21;11.20;99.90
18041;DHT22;9145;48.588;9.250;2023-02-11T13:09:55;11.30;99.90
18041;DHT22;9145;48.588;9.250;2023-02-11T13:12:26;11.20;99.90
18041;DHT22;9145;48.588;9.250;2023-02-11T13:15:14;10.90;99.90
18041;DHT22;9145;48.588;9.250;2023-02-11T13:17:47;10.60;99.90
18041;DHT22;9145;48.588;9.250;2023-02-11T13:20:27;10.60;99.90
18041;DHT22;9145;48.588;9.250;2023-02-11T13:23:00;10.60;99.90
18041;DHT22;9145;48.588;9.250;2023-02-11T13:25:33;10.70;99.90
18041;DHT22;9145;48.588;9.250;2023-02-11T13:28:16;10.80;99.90
18041;DHT22;9145;48.588;9.250;2023-02-11T13:30:46;10.90;99.90
18041;DHT22;9145;48.588;9.250;2023-02-11T13:33:29;10.90;99.90
18041;DHT22;9145;48.588;9.250;2023-02-11T13:36:12;10.90;99.90
18041;DHT22;9145;48.588;9.250;2023-02-11T13:38:40;10.80;99.90
18041;DHT22;9145;48.588;9.250;2023-02-11T13:41:16;10.80;99.90
18041;DHT22;9145;48.588;9.250;2023-02-11T13:43:56;11.00;99.90
18041;DHT22;9145;48.588;9.250;2023-02-11T13:46:25;11.00;99.90
18041;DHT22;9145;48.588;9.250;2023-02-11T13:48:53;11.00;99.90
18041;DHT22;9145;48.588;9.250;2023-02-11T13:51:34;11.10;99.90
18041;DHT22;9145;48.588;9.250;2023-02-11T13:54:02;11.30;99.90
18041;DHT22;9145;48.588;9.250;2023-02-11T13:56:30;11.30;99.90
18041;DHT22;9145;48.588;9.250;2023-02-11T13:59:00;11.40;99.90
18041;DHT22;9145;48.588;9.250;2023-02-11T14:01:43;11.60;99.90
18041;DHT22;9145;48.588;9.250;2023-02-11T14:05:11;11.90;99.90
18041;DHT22;9145;48.588;9.250;2023-02-11T14:08:19;11.90;99.90
18041;DHT22;9145;48.588;9.250;2023-02-11T14:11:05;11.70;99.90
18041;DHT22;9145;48.588;9.250;2023-02-11T14:13:36;11.50;99.90
18041;DHT22;9145;48.588;9.250;2023-02-11T14:16:23;11.70;99.90
18041;DHT22;9145;48.588;9.250;2023-02-11T14:18:58;11.90;99.90
18041;DHT22;9145;48.588;9.250;2023-02-11T14:21:32;12.10;99.90
18041;DHT22;9145;48.588;9.250;2023-02-11T14:27:06;12.40;99.90
18041;DHT22;9145;48.588;9.250;2023-02-11T14:29:38;12.50;99.90
18041;DHT22;9145;48.588;9.250;2023-02-11T14:32:16;12.60;99.90
18041;DHT22;9145;48.588;9.250;2023-02-11T14:34:55;12.50;99.90
18041;DHT22;9145;48.588;9.250;2023-02-11T14:37:32;12.40;99.90
18041;DHT22;9145;48.588;9.250;2023-02-11T14:40:13;12.20;99.90
18041;DHT22;9145;48.588;9.250;2023-02-11T14:42:42;12.20;99.90
18041;DHT22;9145;48.588;9.250;2023-02-11T14:45:13;12.20;99.90
18041;DHT22;9145;48.588;9.250;2023-02-11T14:47:47;12.20;99.90
18041;DHT22;9145;48.588;9.250;2023-02-11T14:50:21;12.30;99.90
18041;DHT22;9145;48.588;9.250;2023-02-11T14:52:50;12.30;99.90
18041;DHT22;9145;48.588;9.250;2023-02-11T14:55:27;12.20;99.90
18041;DHT22;9145;48.588;9.250;2023-02-11T14:58:06;12.20;99.90
18041;DHT22;9145;48.588;9.250;2023-02-11T15:00:33;12.10;99.90
18041;DHT22;9145;48.588;9.250;2023-02-11T15:03:01;12.00;99.90
18041;DHT22;9145;48.588;9.250;2023-02-11T15:05:28;11.80;99.90
18041;DHT22;9145;48.588;9.250;2023-02-11T15:07:58;11.50;99.90
18041;DHT22;9145;48.588;9.250;2023-02-11T15:10:30;11.50;99.90
18041;DHT22;9145;48.588;9.250;2023-02-11T15:12:58;11.60;99.90
18041;DHT22;9145;48.588;9.250;2023-02-11T15:15:26;12.00;99.90
18041;DHT22;9145;48.588;9.250;2023-02-11T15:17:55;12.40;99.90
18041;DHT22;9145;48.588;9.250;2023-02-11T15:20:26;12.70;99.90
18041;DHT22;9145;48.588;9.250;2023-02-11T15:22:56;13.10;99.90
18041;DHT22;9145;48.588;9.250;2023-02-11T15:25:24;13.20;99.90
18041;DHT22;9145;48.588;9.250;2023-02-11T15:27:53;13.40;99.90
18041;DHT22;9145;48.588;9.250;2023-02-11T15:30:27;13.80;99.90
18041;DHT22;9145;48.588;9.250;2023-02-11T15:32:56;14.10;99.90
18041;DHT22;9145;48.588;9.250;2023-02-11T15:35:28;14.40;99.90
18041;DHT22;9145;48.588;9.250;2023-02-11T15:37:56;14.80;99.90
18041;DHT22;9145;48.588;9.250;2023-02-11T15:40:24;14.90;99.90
18041;DHT22;9145;48.588;9.250;2023-02-11T15:42:55;15.40;99.90
18041;DHT22;9145;48.588;9.250;2023-02-11T15:45:24;15.30;99.90
18041;DHT22;9145;48.588;9.250;2023-02-11T15:47:56;15.50;99.90
18041;DHT22;9145;48.588;9.250;2023-02-11T15:50:27;15.50;99.90
18041;DHT22;9145;48.588;9.250;2023-02-11T15:52:55;15.60;99.90
18041;DHT22;9145;48.588;9.250;2023-02-11T15:55:24;15.70;99.90
18041;DHT22;9145;48.588;9.250;2023-02-11T15:57:54;15.60;99.90
18041;DHT22;9145;48.588;9.250;2023-02-11T16:00:23;15.60;99.90
18041;DHT22;9145;48.588;9.250;2023-02-11T16:02:51;15.50;99.90
18041;DHT22;9145;48.588;9.250;2023-02-11T16:05:27;15.00;99.90
18041;DHT22;9145;48.588;9.250;2023-02-11T16:07:54;14.40;99.90
18041;DHT22;9145;48.588;9.250;2023-02-11T16:10:25;13.70;99.90
18041;DHT22;9145;48.588;9.250;2023-02-11T16:12:53;13.20;99.90
18041;DHT22;9145;48.588;9.250;2023-02-11T16:15:40;12.70;99.90
18041;DHT22;9145;48.588;9.250;2023-02-11T16:18:14;12.30;99.90
18041;DHT22;9145;48.588;9.250;2023-02-11T16:20:47;11.90;99.90
18041;DHT22;9145;48.588;9.250;2023-02-11T16:23:20;11.60;99.90
18041;DHT22;9145;48.588;9.250;2023-02-11T16:25:49;11.20;99.90
18041;DHT22;9145;48.588;9.250;2023-02-11T16:28:17;11.10;99.90
18041;DHT22;9145;48.588;9.250;2023-02-11T16:30:43;10.90;99.90